sensor_id;sensor_type;location;lat;lon;timestamp;P1;durP1;ratioP1;P2;durP2;ratioP2
41261;SDS011;29629;52.532;13.352;2022-08-19T00:00:45;77.80;;;72.93;;
41261;SDS011;29629;52.532;13.352;2022-08-19T00:03:12;75.80;;;71.22;;
41261;SDS011;29629;52.532;13.352;2022-08-19T00:05:39;78.43;;;73.43;;
41261;SDS011;29629;52.532;13.352;2022-08-19T00:08:07;76.20;;;71.25;;
41261;SDS011;29629;52.532;13.352;2022-08-19T00:10:34;76.38;;;71.53;;
41261;SDS011;29629;52.532;13.352;2022-08-19T00:13:01;77.40;;;72.55;;
41261;SDS011;29629;52.532;13.352;2022-08-19T00:15:29;75.32;;;70.38;;
41261;SDS011;29629;52.532;13.352;2022-08-19T00:17:57;74.03;;;69.32;;
41261;SDS011;29629;52.532;13.352;2022-08-19T00:20:24;76.45;;;71.35;;
41261;SDS011;29629;52.532;13.352;2022-08-19T00:22:51;74.43;;;69.97;;
41261;SDS011;29629;52.532;13.352;2022-08-19T00:25:19;75.18;;;70.03;;
41261;SDS011;29629;52.532;13.352;2022-08-19T00:27:46;76.43;;;71.38;;
41261;SDS011;29629;52.532;13.352;2022-08-19T00:30:12;72.78;;;68.20;;
41261;SDS011;29629;52.532;13.352;2022-08-19T00:32:40;75.13;;;70.22;;
41261;SDS011;29629;52.532;13.352;2022-08-19T00:35:08;75.55;;;70.47;;
41261;SDS011;29629;52.532;13.352;2022-08-19T00:37:36;72.55;;;67.75;;
41261;SDS011;29629;52.532;13.352;2022-08-19T00:40:04;70.63;;;67.13;;
41261;SDS011;29629;52.532;13.352;2022-08-19T00:42:32;77.63;;;72.65;;
41261;SDS011;29629;52.532;13.352;2022-08-19T00:44:59;75.95;;;71.18;;
41261;SDS011;29629;52.532;13.352;2022-08-19T00:47:26;76.63;;;72.22;;
41261;SDS011;29629;52.532;13.352;2022-08-19T00:49:54;79.65;;;73.88;;
41261;SDS011;29629;52.532;13.352;2022-08-19T00:52:26;74.13;;;69.50;;
41261;SDS011;29629;52.532;13.352;2022-08-19T00:54:55;72.45;;;67.60;;
41261;SDS011;29629;52.532;13.352;2022-08-19T00:57:24;75.85;;;71.18;;
41261;SDS011;29629;52.532;13.352;2022-08-19T00:59:55;74.38;;;69.63;;
41261;SDS011;29629;52.532;13.352;2022-08-19T01:02:24;76.50;;;71.47;;
41261;SDS011;29629;52.532;13.352;2022-08-19T01:04:52;76.63;;;70.85;;
41261;SDS011;29629;52.532;13.352;2022-08-19T01:07:19;73.22;;;68.15;;
41261;SDS011;29629;52.532;13.352;2022-08-19T01:09:47;71.10;;;66.13;;
41261;SDS011;29629;52.532;13.352;2022-08-19T01:12:14;68.57;;;64.18;;
41261;SDS011;29629;52.532;13.352;2022-08-19T01:14:42;66.38;;;61.97;;
41261;SDS011;29629;52.532;13.352;2022-08-19T01:17:11;66.90;;;62.63;;
41261;SDS011;29629;52.532;13.352;2022-08-19T01:19:39;66.28;;;61.80;;
41261;SDS011;29629;52.532;13.352;2022-08-19T01:22:09;71.05;;;66.35;;
41261;SDS011;29629;52.532;13.352;2022-08-19T01:24:39;72.07;;;65.75;;
41261;SDS011;29629;52.532;13.352;2022-08-19T01:27:07;67.32;;;63.25;;
41261;SDS011;29629;52.532;13.352;2022-08-19T01:29:34;64.80;;;60.53;;
41261;SDS011;29629;52.532;13.352;2022-08-19T01:32:04;63.90;;;59.72;;
41261;SDS011;29629;52.532;13.352;2022-08-19T01:34:31;66.45;;;61.53;;
41261;SDS011;29629;52.532;13.352;2022-08-19T01:36:59;63.70;;;59.42;;
41261;SDS011;29629;52.532;13.352;2022-08-19T01:39:27;65.93;;;61.33;;
41261;SDS011;29629;52.532;13.352;2022-08-19T01:41:55;66.07;;;61.58;;
41261;SDS011;29629;52.532;13.352;2022-08-19T01:44:22;65.63;;;61.10;;
41261;SDS011;29629;52.532;13.352;2022-08-19T01:46:50;64.40;;;60.20;;
41261;SDS011;29629;52.532;13.352;2022-08-19T01:49:18;65.47;;;60.90;;
41261;SDS011;29629;52.532;13.352;2022-08-19T01:51:46;64.30;;;60.67;;
41261;SDS011;29629;52.532;13.352;2022-08-19T01:54:14;66.72;;;62.08;;
41261;SDS011;29629;52.532;13.352;2022-08-19T01:56:43;67.00;;;62.47;;
41261;SDS011;29629;52.532;13.352;2022-08-19T01:59:12;67.28;;;62.28;;
41261;SDS011;29629;52.532;13.352;2022-08-19T02:01:42;66.35;;;61.70;;
41261;SDS011;29629;52.532;13.352;2022-08-19T02:04:09;68.82;;;63.90;;
41261;SDS011;29629;52.532;13.352;2022-08-19T02:06:36;73.93;;;67.05;;
41261;SDS011;29629;52.532;13.352;2022-08-19T02:09:06;65.15;;;60.53;;
41261;SDS011;29629;52.532;13.352;2022-08-19T02:11:34;67.53;;;63.00;;
41261;SDS011;29629;52.532;13.352;2022-08-19T02:14:04;67.72;;;63.35;;
41261;SDS011;29629;52.532;13.352;2022-08-19T02:16:33;65.57;;;61.33;;
41261;SDS011;29629;52.532;13.352;2022-08-19T02:19:01;65.72;;;61.20;;
41261;SDS011;29629;52.532;13.352;2022-08-19T02:21:28;58.65;;;54.55;;
41261;SDS011;29629;52.532;13.352;2022-08-19T02:23:56;45.08;;;41.38;;
41261;SDS011;29629;52.532;13.352;2022-08-19T02:26:23;40.45;;;37.22;;
41261;SDS011;29629;52.532;13.352;2022-08-19T02:28:50;41.35;;;38.13;;
41261;SDS011;29629;52.532;13.352;2022-08-19T02:31:18;36.90;;;33.78;;
41261;SDS011;29629;52.532;13.352;2022-08-19T02:33:48;40.95;;;37.67;;
41261;SDS011;29629;52.532;13.352;2022-08-19T02:36:15;41.38;;;37.92;;
41261;SDS011;29629;52.532;13.352;2022-08-19T02:38:43;41.72;;;38.25;;
41261;SDS011;29629;52.532;13.352;2022-08-19T02:41:11;43.75;;;40.53;;
41261;SDS011;29629;52.532;13.352;2022-08-19T02:43:40;46.80;;;42.85;;
41261;SDS011;29629;52.532;13.352;2022-08-19T02:46:12;47.72;;;44.08;;
41261;SDS011;29629;52.532;13.352;2022-08-19T02:48:39;50.72;;;46.60;;
41261;SDS011;29629;52.532;13.352;2022-08-19T02:51:07;45.25;;;41.83;;
41261;SDS011;29629;52.532;13.352;2022-08-19T02:53:34;46.08;;;42.25;;
41261;SDS011;29629;52.532;13.352;2022-08-19T02:56:05;47.03;;;43.10;;
41261;SDS011;29629;52.532;13.352;2022-08-19T02:58:33;48.50;;;44.50;;
41261;SDS011;29629;52.532;13.352;2022-08-19T03:01:00;50.30;;;46.63;;
41261;SDS011;29629;52.532;13.352;2022-08-19T03:03:27;52.10;;;48.20;;
41261;SDS011;29629;52.532;13.352;2022-08-19T03:06:08;56.22;;;51.95;;
41261;SDS011;29629;52.532;13.352;2022-08-19T03:08:38;53.33;;;49.30;;
41261;SDS011;29629;52.532;13.352;2022-08-19T03:11:06;52.45;;;48.80;;
41261;SDS011;29629;52.532;13.352;2022-08-19T03:13:39;56.45;;;51.97;;
41261;SDS011;29629;52.532;13.352;2022-08-19T03:16:06;54.70;;;50.45;;
41261;SDS011;29629;52.532;13.352;2022-08-19T03:18:32;55.58;;;51.55;;
41261;SDS011;29629;52.532;13.352;2022-08-19T03:20:59;54.25;;;50.00;;
41261;SDS011;29629;52.532;13.352;2022-08-19T03:23:27;50.83;;;47.22;;
41261;SDS011;29629;52.532;13.352;2022-08-19T03:25:54;55.20;;;51.08;;
41261;SDS011;29629;52.532;13.352;2022-08-19T03:28:21;56.00;;;51.75;;
41261;SDS011;29629;52.532;13.352;2022-08-19T03:30:55;54.80;;;50.67;;
41261;SDS011;29629;52.532;13.352;2022-08-19T03:33:24;52.17;;;48.42;;
41261;SDS011;29629;52.532;13.352;2022-08-19T03:36:01;54.92;;;50.33;;
41261;SDS011;29629;52.532;13.352;2022-08-19T03:38:31;54.75;;;50.75;;
41261;SDS011;29629;52.532;13.352;2022-08-19T03:41:01;55.85;;;51.63;;
41261;SDS011;29629;52.532;13.352;2022-08-19T03:43:31;54.40;;;50.50;;
41261;SDS011;29629;52.532;13.352;2022-08-19T03:46:00;55.80;;;51.65;;
41261;SDS011;29629;52.532;13.352;2022-08-19T03:48:29;55.45;;;52.25;;
41261;SDS011;29629;52.532;13.352;2022-08-19T03:50:56;54.10;;;50.80;;
41261;SDS011;29629;52.532;13.352;2022-08-19T03:53:24;57.92;;;54.40;;
41261;SDS011;29629;52.532;13.352;2022-08-19T03:55:53;58.22;;;53.85;;
41261;SDS011;29629;52.532;13.352;2022-08-19T03:58:20;59.00;;;54.92;;
41261;SDS011;29629;52.532;13.352;2022-08-19T04:00:48;59.55;;;55.38;;
41261;SDS011;29629;52.532;13.352;2022-08-19T04:03:15;58.33;;;54.35;;
41261;SDS011;29629;52.532;13.352;2022-08-19T04:05:43;59.25;;;54.90;;
41261;SDS011;29629;52.532;13.352;2022-08-19T04:08:10;59.92;;;55.67;;
41261;SDS011;29629;52.532;13.352;2022-08-19T04:10:38;63.33;;;58.80;;
41261;SDS011;29629;52.532;13.352;2022-08-19T04:13:06;60.83;;;56.53;;
41261;SDS011;29629;52.532;13.352;2022-08-19T04:15:38;58.45;;;54.88;;
41261;SDS011;29629;52.532;13.352;2022-08-19T04:18:06;60.22;;;55.70;;
41261;SDS011;29629;52.532;13.352;2022-08-19T04:20:37;61.83;;;57.20;;
41261;SDS011;29629;52.532;13.352;2022-08-19T04:23:05;62.40;;;58.20;;
41261;SDS011;29629;52.532;13.352;2022-08-19T04:25:34;63.10;;;58.55;;
41261;SDS011;29629;52.532;13.352;2022-08-19T04:28:02;62.13;;;57.95;;
41261;SDS011;29629;52.532;13.352;2022-08-19T04:30:30;62.80;;;58.22;;
41261;SDS011;29629;52.532;13.352;2022-08-19T04:33:02;63.10;;;58.58;;
41261;SDS011;29629;52.532;13.352;2022-08-19T04:35:34;62.10;;;57.38;;
41261;SDS011;29629;52.532;13.352;2022-08-19T04:38:01;61.20;;;56.67;;
41261;SDS011;29629;52.532;13.352;2022-08-19T04:40:28;61.25;;;56.97;;
41261;SDS011;29629;52.532;13.352;2022-08-19T04:43:12;60.00;;;55.63;;
41261;SDS011;29629;52.532;13.352;2022-08-19T04:45:42;64.57;;;59.97;;
41261;SDS011;29629;52.532;13.352;2022-08-19T04:48:09;60.53;;;56.92;;
41261;SDS011;29629;52.532;13.352;2022-08-19T04:50:36;63.92;;;59.63;;
41261;SDS011;29629;52.532;13.352;2022-08-19T04:53:06;61.75;;;57.50;;
41261;SDS011;29629;52.532;13.352;2022-08-19T04:55:33;62.78;;;58.33;;
41261;SDS011;29629;52.532;13.352;2022-08-19T04:58:00;63.40;;;59.03;;
41261;SDS011;29629;52.532;13.352;2022-08-19T05:00:27;66.85;;;62.45;;
41261;SDS011;29629;52.532;13.352;2022-08-19T05:02:55;58.78;;;55.42;;
41261;SDS011;29629;52.532;13.352;2022-08-19T05:05:22;61.45;;;56.90;;
41261;SDS011;29629;52.532;13.352;2022-08-19T05:07:49;62.95;;;58.92;;
41261;SDS011;29629;52.532;13.352;2022-08-19T05:10:15;65.50;;;61.00;;
41261;SDS011;29629;52.532;13.352;2022-08-19T05:12:43;62.08;;;58.65;;
41261;SDS011;29629;52.532;13.352;2022-08-19T05:15:09;69.57;;;64.55;;
41261;SDS011;29629;52.532;13.352;2022-08-19T05:17:37;64.70;;;60.45;;
41261;SDS011;29629;52.532;13.352;2022-08-19T05:20:25;65.60;;;61.35;;
41261;SDS011;29629;52.532;13.352;2022-08-19T05:23:10;64.55;;;60.15;;
41261;SDS011;29629;52.532;13.352;2022-08-19T05:25:40;66.40;;;62.08;;
41261;SDS011;29629;52.532;13.352;2022-08-19T05:28:07;65.72;;;61.70;;
41261;SDS011;29629;52.532;13.352;2022-08-19T05:30:34;64.20;;;59.92;;
41261;SDS011;29629;52.532;13.352;2022-08-19T05:33:00;68.55;;;64.13;;
41261;SDS011;29629;52.532;13.352;2022-08-19T05:35:28;69.88;;;64.85;;
41261;SDS011;29629;52.532;13.352;2022-08-19T05:37:55;70.80;;;66.60;;
41261;SDS011;29629;52.532;13.352;2022-08-19T05:40:22;73.47;;;68.43;;
41261;SDS011;29629;52.532;13.352;2022-08-19T05:42:49;74.57;;;69.90;;
41261;SDS011;29629;52.532;13.352;2022-08-19T05:45:16;76.70;;;71.28;;
41261;SDS011;29629;52.532;13.352;2022-08-19T05:47:43;72.93;;;68.90;;
41261;SDS011;29629;52.532;13.352;2022-08-19T05:50:11;76.13;;;71.15;;
41261;SDS011;29629;52.532;13.352;2022-08-19T05:52:39;74.68;;;70.25;;
41261;SDS011;29629;52.532;13.352;2022-08-19T05:55:06;70.60;;;66.20;;
41261;SDS011;29629;52.532;13.352;2022-08-19T05:57:33;75.25;;;70.25;;
41261;SDS011;29629;52.532;13.352;2022-08-19T06:00:00;73.95;;;69.30;;
41261;SDS011;29629;52.532;13.352;2022-08-19T06:02:28;74.18;;;69.38;;
41261;SDS011;29629;52.532;13.352;2022-08-19T06:04:56;72.68;;;68.07;;
41261;SDS011;29629;52.532;13.352;2022-08-19T06:07:23;76.55;;;71.85;;
41261;SDS011;29629;52.532;13.352;2022-08-19T06:09:51;74.28;;;69.65;;
41261;SDS011;29629;52.532;13.352;2022-08-19T06:12:18;74.40;;;69.60;;
41261;SDS011;29629;52.532;13.352;2022-08-19T06:14:45;77.03;;;72.38;;
41261;SDS011;29629;52.532;13.352;2022-08-19T06:17:12;76.82;;;72.80;;
41261;SDS011;29629;52.532;13.352;2022-08-19T06:19:39;80.80;;;75.95;;
41261;SDS011;29629;52.532;13.352;2022-08-19T06:22:08;83.35;;;78.53;;
41261;SDS011;29629;52.532;13.352;2022-08-19T06:24:36;86.65;;;80.80;;
41261;SDS011;29629;52.532;13.352;2022-08-19T06:27:05;84.28;;;78.82;;
41261;SDS011;29629;52.532;13.352;2022-08-19T06:29:32;86.20;;;81.10;;
41261;SDS011;29629;52.532;13.352;2022-08-19T06:32:00;87.28;;;81.75;;
41261;SDS011;29629;52.532;13.352;2022-08-19T06:34:30;91.95;;;85.80;;
41261;SDS011;29629;52.532;13.352;2022-08-19T06:36:59;87.38;;;81.85;;
41261;SDS011;29629;52.532;13.352;2022-08-19T06:39:27;89.20;;;83.47;;
41261;SDS011;29629;52.532;13.352;2022-08-19T06:41:56;93.55;;;88.07;;
41261;SDS011;29629;52.532;13.352;2022-08-19T06:44:28;89.35;;;83.75;;
41261;SDS011;29629;52.532;13.352;2022-08-19T06:47:01;87.63;;;82.22;;
41261;SDS011;29629;52.532;13.352;2022-08-19T06:49:29;89.45;;;84.30;;
41261;SDS011;29629;52.532;13.352;2022-08-19T06:51:57;90.18;;;84.80;;
41261;SDS011;29629;52.532;13.352;2022-08-19T06:54:24;89.15;;;82.75;;
41261;SDS011;29629;52.532;13.352;2022-08-19T06:56:51;85.22;;;80.03;;
41261;SDS011;29629;52.532;13.352;2022-08-19T06:59:19;86.07;;;80.60;;
41261;SDS011;29629;52.532;13.352;2022-08-19T07:01:49;86.18;;;80.93;;
41261;SDS011;29629;52.532;13.352;2022-08-19T07:04:19;91.78;;;85.35;;
41261;SDS011;29629;52.532;13.352;2022-08-19T07:06:48;90.13;;;85.05;;
41261;SDS011;29629;52.532;13.352;2022-08-19T07:09:17;90.88;;;85.35;;
41261;SDS011;29629;52.532;13.352;2022-08-19T07:11:44;89.78;;;84.40;;
41261;SDS011;29629;52.532;13.352;2022-08-19T07:14:12;87.45;;;81.88;;
41261;SDS011;29629;52.532;13.352;2022-08-19T07:16:42;92.53;;;86.60;;
41261;SDS011;29629;52.532;13.352;2022-08-19T07:19:11;87.25;;;82.03;;
41261;SDS011;29629;52.532;13.352;2022-08-19T07:21:39;89.45;;;84.05;;
41261;SDS011;29629;52.532;13.352;2022-08-19T07:24:06;98.50;;;93.00;;
41261;SDS011;29629;52.532;13.352;2022-08-19T07:26:37;91.90;;;86.18;;
41261;SDS011;29629;52.532;13.352;2022-08-19T07:29:05;94.43;;;89.03;;
41261;SDS011;29629;52.532;13.352;2022-08-19T07:31:33;93.45;;;88.38;;
41261;SDS011;29629;52.532;13.352;2022-08-19T07:34:01;98.85;;;92.72;;
41261;SDS011;29629;52.532;13.352;2022-08-19T07:36:34;98.10;;;92.28;;
41261;SDS011;29629;52.532;13.352;2022-08-19T07:39:03;93.82;;;88.07;;
41261;SDS011;29629;52.532;13.352;2022-08-19T07:41:34;94.93;;;89.28;;
41261;SDS011;29629;52.532;13.352;2022-08-19T07:44:02;95.82;;;90.03;;
41261;SDS011;29629;52.532;13.352;2022-08-19T07:46:32;97.07;;;90.97;;
41261;SDS011;29629;52.532;13.352;2022-08-19T07:49:00;92.25;;;86.65;;
41261;SDS011;29629;52.532;13.352;2022-08-19T07:51:28;93.63;;;88.85;;
41261;SDS011;29629;52.532;13.352;2022-08-19T07:53:56;98.22;;;92.40;;
41261;SDS011;29629;52.532;13.352;2022-08-19T07:56:23;98.45;;;92.68;;
41261;SDS011;29629;52.532;13.352;2022-08-19T07:58:51;97.20;;;91.50;;
41261;SDS011;29629;52.532;13.352;2022-08-19T08:01:19;99.22;;;92.45;;
41261;SDS011;29629;52.532;13.352;2022-08-19T08:03:48;101.35;;;95.93;;
41261;SDS011;29629;52.532;13.352;2022-08-19T08:06:33;102.05;;;96.32;;
41261;SDS011;29629;52.532;13.352;2022-08-19T08:09:19;98.90;;;93.68;;
41261;SDS011;29629;52.532;13.352;2022-08-19T08:11:49;97.88;;;92.10;;
41261;SDS011;29629;52.532;13.352;2022-08-19T08:14:19;100.38;;;94.40;;
41261;SDS011;29629;52.532;13.352;2022-08-19T08:16:47;97.75;;;91.93;;
41261;SDS011;29629;52.532;13.352;2022-08-19T08:19:16;101.22;;;95.18;;
41261;SDS011;29629;52.532;13.352;2022-08-19T08:21:44;98.22;;;92.35;;
41261;SDS011;29629;52.532;13.352;2022-08-19T08:24:12;98.88;;;92.40;;
41261;SDS011;29629;52.532;13.352;2022-08-19T08:26:40;95.05;;;89.47;;
41261;SDS011;29629;52.532;13.352;2022-08-19T08:29:08;92.53;;;86.97;;
41261;SDS011;29629;52.532;13.352;2022-08-19T08:31:36;88.07;;;83.05;;
41261;SDS011;29629;52.532;13.352;2022-08-19T08:34:03;92.63;;;87.28;;
41261;SDS011;29629;52.532;13.352;2022-08-19T08:36:30;98.15;;;92.28;;
41261;SDS011;29629;52.532;13.352;2022-08-19T08:38:58;98.90;;;93.03;;
41261;SDS011;29629;52.532;13.352;2022-08-19T08:41:26;94.28;;;88.78;;
41261;SDS011;29629;52.532;13.352;2022-08-19T08:43:58;99.10;;;93.38;;
41261;SDS011;29629;52.532;13.352;2022-08-19T08:46:26;93.82;;;88.07;;
41261;SDS011;29629;52.532;13.352;2022-08-19T08:49:01;96.10;;;90.50;;
41261;SDS011;29629;52.532;13.352;2022-08-19T08:51:33;97.13;;;91.50;;
41261;SDS011;29629;52.532;13.352;2022-08-19T08:54:04;99.78;;;93.43;;
41261;SDS011;29629;52.532;13.352;2022-08-19T08:56:33;98.05;;;91.30;;
41261;SDS011;29629;52.532;13.352;2022-08-19T08:59:03;93.05;;;87.03;;
41261;SDS011;29629;52.532;13.352;2022-08-19T09:01:33;92.88;;;87.43;;
41261;SDS011;29629;52.532;13.352;2022-08-19T09:04:02;97.03;;;91.15;;
41261;SDS011;29629;52.532;13.352;2022-08-19T09:06:32;92.38;;;86.85;;
41261;SDS011;29629;52.532;13.352;2022-08-19T09:09:05;86.60;;;81.17;;
41261;SDS011;29629;52.532;13.352;2022-08-19T09:11:45;90.07;;;85.03;;
41261;SDS011;29629;52.532;13.352;2022-08-19T09:14:23;92.63;;;86.68;;
41261;SDS011;29629;52.532;13.352;2022-08-19T09:16:58;93.22;;;87.70;;
41261;SDS011;29629;52.532;13.352;2022-08-19T09:19:28;91.10;;;85.53;;
41261;SDS011;29629;52.532;13.352;2022-08-19T09:21:55;96.57;;;91.18;;
41261;SDS011;29629;52.532;13.352;2022-08-19T09:24:23;102.18;;;95.13;;
41261;SDS011;29629;52.532;13.352;2022-08-19T09:26:49;98.05;;;92.10;;
41261;SDS011;29629;52.532;13.352;2022-08-19T09:29:16;98.85;;;93.03;;
41261;SDS011;29629;52.532;13.352;2022-08-19T09:31:44;99.15;;;93.82;;
41261;SDS011;29629;52.532;13.352;2022-08-19T09:34:11;97.97;;;92.63;;
41261;SDS011;29629;52.532;13.352;2022-08-19T09:36:38;98.95;;;93.05;;
41261;SDS011;29629;52.532;13.352;2022-08-19T09:39:05;97.25;;;91.18;;
41261;SDS011;29629;52.532;13.352;2022-08-19T09:41:32;101.05;;;95.18;;
41261;SDS011;29629;52.532;13.352;2022-08-19T09:43:59;101.97;;;95.95;;
41261;SDS011;29629;52.532;13.352;2022-08-19T09:46:27;98.32;;;92.97;;
41261;SDS011;29629;52.532;13.352;2022-08-19T09:48:57;106.13;;;100.25;;
41261;SDS011;29629;52.532;13.352;2022-08-19T09:51:25;98.03;;;92.20;;
41261;SDS011;29629;52.532;13.352;2022-08-19T09:53:55;106.38;;;100.22;;
41261;SDS011;29629;52.532;13.352;2022-08-19T09:56:26;102.60;;;97.47;;
41261;SDS011;29629;52.532;13.352;2022-08-19T09:58:53;104.57;;;98.82;;
41261;SDS011;29629;52.532;13.352;2022-08-19T10:01:21;103.00;;;96.70;;
41261;SDS011;29629;52.532;13.352;2022-08-19T10:03:50;96.72;;;91.03;;
41261;SDS011;29629;52.532;13.352;2022-08-19T10:06:20;103.20;;;96.70;;
41261;SDS011;29629;52.532;13.352;2022-08-19T10:08:47;108.65;;;101.93;;
41261;SDS011;29629;52.532;13.352;2022-08-19T10:11:15;100.00;;;94.03;;
41261;SDS011;29629;52.532;13.352;2022-08-19T10:13:43;100.55;;;94.60;;
41261;SDS011;29629;52.532;13.352;2022-08-19T10:16:11;104.10;;;97.78;;
41261;SDS011;29629;52.532;13.352;2022-08-19T10:18:40;98.63;;;92.93;;
41261;SDS011;29629;52.532;13.352;2022-08-19T10:21:09;101.60;;;95.35;;
41261;SDS011;29629;52.532;13.352;2022-08-19T10:23:41;102.63;;;96.82;;
41261;SDS011;29629;52.532;13.352;2022-08-19T10:26:11;101.32;;;94.93;;
41261;SDS011;29629;52.532;13.352;2022-08-19T10:28:39;104.50;;;98.43;;
41261;SDS011;29629;52.532;13.352;2022-08-19T10:31:07;105.20;;;99.07;;
41261;SDS011;29629;52.532;13.352;2022-08-19T10:33:36;105.90;;;100.65;;
41261;SDS011;29629;52.532;13.352;2022-08-19T10:36:04;106.45;;;100.53;;
41261;SDS011;29629;52.532;13.352;2022-08-19T10:38:32;102.05;;;96.00;;
41261;SDS011;29629;52.532;13.352;2022-08-19T10:41:07;106.30;;;99.97;;
41261;SDS011;29629;52.532;13.352;2022-08-19T10:43:34;110.53;;;103.88;;
41261;SDS011;29629;52.532;13.352;2022-08-19T10:46:03;104.10;;;98.25;;
41261;SDS011;29629;52.532;13.352;2022-08-19T10:48:30;107.72;;;101.90;;
41261;SDS011;29629;52.532;13.352;2022-08-19T10:50:57;104.70;;;98.97;;
41261;SDS011;29629;52.532;13.352;2022-08-19T10:53:42;105.75;;;100.38;;
41261;SDS011;29629;52.532;13.352;2022-08-19T10:56:10;112.07;;;105.93;;
41261;SDS011;29629;52.532;13.352;2022-08-19T10:58:55;110.45;;;104.38;;
41261;SDS011;29629;52.532;13.352;2022-08-19T11:01:23;109.40;;;103.18;;
41261;SDS011;29629;52.532;13.352;2022-08-19T11:03:49;107.57;;;101.55;;
41261;SDS011;29629;52.532;13.352;2022-08-19T11:06:17;109.40;;;102.85;;
41261;SDS011;29629;52.532;13.352;2022-08-19T11:08:45;106.63;;;100.93;;
41261;SDS011;29629;52.532;13.352;2022-08-19T11:11:13;112.20;;;105.65;;
41261;SDS011;29629;52.532;13.352;2022-08-19T11:13:40;108.72;;;102.38;;
41261;SDS011;29629;52.532;13.352;2022-08-19T11:16:09;115.00;;;107.10;;
41261;SDS011;29629;52.532;13.352;2022-08-19T11:18:39;103.03;;;97.05;;
41261;SDS011;29629;52.532;13.352;2022-08-19T11:21:09;106.80;;;101.03;;
41261;SDS011;29629;52.532;13.352;2022-08-19T11:23:38;112.85;;;106.13;;
41261;SDS011;29629;52.532;13.352;2022-08-19T11:26:05;112.68;;;105.78;;
41261;SDS011;29629;52.532;13.352;2022-08-19T11:28:34;103.57;;;97.65;;
41261;SDS011;29629;52.532;13.352;2022-08-19T11:31:01;110.63;;;104.68;;
41261;SDS011;29629;52.532;13.352;2022-08-19T11:33:29;106.75;;;100.70;;
41261;SDS011;29629;52.532;13.352;2022-08-19T11:35:56;110.00;;;103.75;;
41261;SDS011;29629;52.532;13.352;2022-08-19T11:38:24;106.43;;;100.32;;
41261;SDS011;29629;52.532;13.352;2022-08-19T11:40:58;111.78;;;106.18;;
41261;SDS011;29629;52.532;13.352;2022-08-19T11:43:27;109.13;;;103.18;;
41261;SDS011;29629;52.532;13.352;2022-08-19T11:45:55;114.50;;;107.75;;
41261;SDS011;29629;52.532;13.352;2022-08-19T11:48:24;111.05;;;104.75;;
41261;SDS011;29629;52.532;13.352;2022-08-19T11:50:52;111.00;;;105.32;;
41261;SDS011;29629;52.532;13.352;2022-08-19T11:53:20;115.32;;;108.32;;
41261;SDS011;29629;52.532;13.352;2022-08-19T11:55:47;113.85;;;107.57;;
41261;SDS011;29629;52.532;13.352;2022-08-19T11:58:15;104.00;;;99.07;;
41261;SDS011;29629;52.532;13.352;2022-08-19T12:00:43;109.63;;;103.82;;
41261;SDS011;29629;52.532;13.352;2022-08-19T12:03:12;109.95;;;104.00;;
41261;SDS011;29629;52.532;13.352;2022-08-19T12:05:39;107.43;;;101.57;;
41261;SDS011;29629;52.532;13.352;2022-08-19T12:08:07;112.65;;;106.60;;
41261;SDS011;29629;52.532;13.352;2022-08-19T12:10:34;114.43;;;107.88;;
41261;SDS011;29629;52.532;13.352;2022-08-19T12:13:01;112.35;;;106.35;;
41261;SDS011;29629;52.532;13.352;2022-08-19T12:15:28;112.68;;;106.47;;
41261;SDS011;29629;52.532;13.352;2022-08-19T12:17:55;113.63;;;107.13;;
41261;SDS011;29629;52.532;13.352;2022-08-19T12:20:24;112.10;;;106.05;;
41261;SDS011;29629;52.532;13.352;2022-08-19T12:22:51;109.22;;;103.32;;
41261;SDS011;29629;52.532;13.352;2022-08-19T12:25:18;106.70;;;100.13;;
41261;SDS011;29629;52.532;13.352;2022-08-19T12:27:45;115.43;;;107.55;;
41261;SDS011;29629;52.532;13.352;2022-08-19T12:30:13;107.68;;;101.95;;
41261;SDS011;29629;52.532;13.352;2022-08-19T12:32:40;107.38;;;101.63;;
41261;SDS011;29629;52.532;13.352;2022-08-19T12:35:07;112.20;;;105.97;;
41261;SDS011;29629;52.532;13.352;2022-08-19T12:37:37;109.10;;;103.57;;
41261;SDS011;29629;52.532;13.352;2022-08-19T12:40:07;107.13;;;101.35;;
41261;SDS011;29629;52.532;13.352;2022-08-19T12:42:36;106.85;;;101.05;;
41261;SDS011;29629;52.532;13.352;2022-08-19T12:45:07;104.03;;;97.97;;
41261;SDS011;29629;52.532;13.352;2022-08-19T12:47:34;97.55;;;92.32;;
41261;SDS011;29629;52.532;13.352;2022-08-19T12:50:02;105.57;;;99.78;;
41261;SDS011;29629;52.532;13.352;2022-08-19T12:52:33;102.68;;;96.88;;
41261;SDS011;29629;52.532;13.352;2022-08-19T12:55:04;101.35;;;95.43;;
41261;SDS011;29629;52.532;13.352;2022-08-19T12:57:32;92.35;;;86.95;;
41261;SDS011;29629;52.532;13.352;2022-08-19T13:00:04;89.45;;;83.43;;
41261;SDS011;29629;52.532;13.352;2022-08-19T13:02:35;89.45;;;83.53;;
41261;SDS011;29629;52.532;13.352;2022-08-19T13:05:02;77.53;;;72.63;;
41261;SDS011;29629;52.532;13.352;2022-08-19T13:07:31;60.20;;;56.15;;
41261;SDS011;29629;52.532;13.352;2022-08-19T13:09:58;54.83;;;50.72;;
41261;SDS011;29629;52.532;13.352;2022-08-19T13:12:26;57.50;;;53.10;;
41261;SDS011;29629;52.532;13.352;2022-08-19T13:14:54;56.95;;;52.72;;
41261;SDS011;29629;52.532;13.352;2022-08-19T13:17:21;65.93;;;61.53;;
41261;SDS011;29629;52.532;13.352;2022-08-19T13:19:48;118.97;;;112.22;;
41261;SDS011;29629;52.532;13.352;2022-08-19T13:22:15;114.30;;;107.43;;
41261;SDS011;29629;52.532;13.352;2022-08-19T13:24:43;116.45;;;109.47;;
41261;SDS011;29629;52.532;13.352;2022-08-19T13:27:11;124.90;;;117.72;;
41261;SDS011;29629;52.532;13.352;2022-08-19T13:29:40;132.93;;;125.90;;
41261;SDS011;29629;52.532;13.352;2022-08-19T13:32:25;131.70;;;124.30;;
41261;SDS011;29629;52.532;13.352;2022-08-19T13:35:09;127.45;;;119.88;;
41261;SDS011;29629;52.532;13.352;2022-08-19T13:37:36;125.72;;;118.80;;
41261;SDS011;29629;52.532;13.352;2022-08-19T13:40:09;122.75;;;115.80;;
41261;SDS011;29629;52.532;13.352;2022-08-19T13:42:39;121.53;;;115.40;;
41261;SDS011;29629;52.532;13.352;2022-08-19T13:45:08;126.88;;;119.78;;
41261;SDS011;29629;52.532;13.352;2022-08-19T13:47:35;128.57;;;121.90;;
41261;SDS011;29629;52.532;13.352;2022-08-19T13:50:09;126.68;;;119.70;;
41261;SDS011;29629;52.532;13.352;2022-08-19T13:52:36;131.85;;;124.80;;
41261;SDS011;29629;52.532;13.352;2022-08-19T13:55:04;136.52;;;128.98;;
41261;SDS011;29629;52.532;13.352;2022-08-19T13:57:31;132.38;;;125.05;;
41261;SDS011;29629;52.532;13.352;2022-08-19T13:59:58;132.93;;;124.32;;
41261;SDS011;29629;52.532;13.352;2022-08-19T14:02:27;129.75;;;122.43;;
41261;SDS011;29629;52.532;13.352;2022-08-19T14:04:53;127.28;;;120.80;;
41261;SDS011;29629;52.532;13.352;2022-08-19T14:07:20;129.10;;;121.85;;
41261;SDS011;29629;52.532;13.352;2022-08-19T14:09:49;130.85;;;124.18;;
41261;SDS011;29629;52.532;13.352;2022-08-19T14:12:18;128.95;;;121.90;;